Malibu, CA (90263)

7:26 PM PST on December 03, 2016 (GMT -0800)
Latigo | | Change Station

Elev 1050 ft 34.05 °N, 118.78 °W | Updated 28 seconds ago

Clear
Clear
61.5 °F
Feels Like 61.5 °F
N
12.0
Wind Variable Wind from NW

Today
High -- | Low -- °F
--% Chance of Precip.
Yesterday
High -- | Low -- °F
Precip. -- in
Pressure 30.05 in
Visibility 10.0 miles
Clouds Clear
Dew Point 27 °F
Humidity 27%
Rainfall 0.00 in
Snow Depth Not available.
6:44 AM 4:45 PM
Waxing Crescent, 19% visible
METAR KSMO 040251Z VRB04KT 10SM CLR 14/M06 A3005 RMK AO2 SLP175 T01391056 53001 $
Pressure 30.05 in
Visibility 10.0 miles
Clouds Clear
Dew Point 27 °F
Humidity 27%
Rainfall 0.00 in
Snow Depth Not available.
6:44 AM 4:45 PM
Waxing Crescent, 19% visible
METAR KSMO 040251Z VRB04KT 10SM CLR 14/M06 A3005 RMK AO2 SLP175 T01391056 53001 $

10-Day Weather Forecast

Almanac

Astronomy

Dec. 03, 2016 Rise Set
Actual Time
Civil Twilight
Nautical Twilight
Astronomical Twilight
Moon
Length of Visible Light
Length of Day
Tomorrow will be .
, % of the Moon is Illuminated

Today's Extremes

State Highs State Lows

Community

WunderPhotos

Upload Photos

1,955,570 photos uploaded!

WunderBlog® & News

Nearby

Air Quality

  Air Quality AQ Index Pollutant
Not available.

Snow Depth

Station Depth Elevation

Earthquake Activity

City Distance Mag. Time & Date
Minimum magnitude displayed is 2.5.

Coastal Water Temperatures

Place Temperature

Stations

Nearby Weather Stations

Station Location Temp. Windchill Dew Point Humidity Wind Precip. Elev Updated Type
                   

Watches & Warnings

There are currently no watches in effect.